< Typhoon 198214 1982 Season Typhoon 198216 >
Typhoon 198215 (GORDON)
General InformationTrack Information on Google MapsDetailed Wind InformationList of All Images || NewsDisaster Info.ResourceGoogle EarthGE AnimationAtom FeedGeoJSON
Detalied Best Track (Time Zone = UTC)
Year Month Day Hour Lat. Long. Pressure (hPa) Wind (kt) Class Image Chart
1982 8 26 12 12.5 156.0 1004 0 2 Image Chart
1982 8 26 18 13.5 155.0 1002 0 2 Image Chart
1982 8 27 00 14.5 153.9 1000 0 2 Image Chart
1982 8 27 06 15.4 152.7 998 35 3 Image Chart
1982 8 27 12 16.4 151.7 990 45 3 Image Chart
1982 8 27 18 17.0 151.1 985 45 3 Image Chart
1982 8 28 00 17.7 150.6 975 55 4 Image Chart
1982 8 28 06 18.6 150.6 970 60 4 Image Chart
1982 8 28 12 20.0 150.5 965 65 5 Image Chart
1982 8 28 18 21.1 150.4 955 70 5 Image Chart
1982 8 29 00 22.1 150.1 950 80 5 Image Chart
1982 8 29 06 23.2 149.8 945 80 5 Image Chart
1982 8 29 12 24.1 149.4 945 90 5 Image Chart
1982 8 29 18 24.6 148.9 945 90 5 Image Chart
1982 8 30 00 25.1 148.3 945 90 5 Image Chart
1982 8 30 06 25.6 147.9 945 90 5 Image Chart
1982 8 30 12 26.0 147.6 945 90 5 Image Chart
1982 8 30 18 26.4 147.2 945 90 5 Image Chart
1982 8 31 00 26.8 146.8 945 90 5 Image Chart
1982 8 31 06 27.1 146.3 945 90 5 Image Chart
1982 8 31 12 27.1 145.7 945 85 5 Image Chart
1982 8 31 18 26.8 145.0 945 85 5 Image Chart
1982 9 1 00 27.0 144.4 950 85 5 Image Chart
1982 9 1 06 27.0 143.8 955 85 5 Image Chart
1982 9 1 12 27.2 143.2 955 85 5 Image Chart
1982 9 1 18 27.5 142.4 955 85 5 Image Chart
1982 9 2 00 27.4 141.6 960 80 5 Image Chart
1982 9 2 06 27.5 141.0 965 70 5 Image Chart
1982 9 2 12 27.7 140.5 965 70 5 Image Chart
1982 9 2 18 28.2 139.9 965 70 5 Image Chart
1982 9 3 00 28.6 139.5 970 65 5 Image Chart
1982 9 3 06 29.1 139.3 970 65 5 Image Chart
1982 9 3 12 29.4 139.6 965 70 5 Image Chart
1982 9 3 18 30.0 140.4 965 65 5 Image Chart
1982 9 4 00 30.9 141.2 965 70 5 Image Chart
1982 9 4 06 31.9 142.9 965 70 5 Image Chart
1982 9 4 12 32.9 144.5 965 70 5 Image Chart
1982 9 4 18 34.1 146.1 965 70 5 Image Chart
1982 9 5 00 35.7 148.0 970 60 4 Image Chart
1982 9 5 06 37.0 149.5 970 60 4 Image Chart
1982 9 5 12 38.7 150.2 970 60 4 Image Chart
1982 9 5 18 40.2 150.8 975 60 4 Image Chart
1982 9 6 00 40.2 150.8 975 0 6 Image Chart
1982 9 6 06 41.7 151.8 980 0 6 Image Chart
1982 9 6 12 43.0 153.0 980 0 6 Image Chart
1982 9 6 18 44.5 154.5 980 0 6 Image Chart
1982 9 7 00 46.0 156.0 984 0 6 Image Chart
1982 9 7 06 47.5 157.0 984 0 6 Image Chart
1982 9 7 12 49.0 159.0 984 0 6 Image Chart
1982 9 7 18 49.0 161.0 984 0 6 Image Chart
1982 9 8 00 49.0 164.0 984 0 6 Image Chart
1982 9 8 06 49.5 167.0 984 0 6 Image Chart
1982 9 8 12 50.0 172.3 990 0 6 Image Chart
1982 9 8 18 50.8 177.0 996 0 6 Image Chart
Japan Meteorological Agency Best Track Data | Correction Date : 1992-10-21
< Typhoon 198214 1982 Season Typhoon 198216 >

Help